SAST,Max TemperatureF,Mean TemperatureF,Min TemperatureF,Max Dew PointF,MeanDew PointF,Min DewpointF,Max Humidity, Mean Humidity, Min Humidity, Max Sea Level PressureIn, Mean Sea Level PressureIn, Min Sea Level PressureIn, Max VisibilityMiles, Mean VisibilityMiles, Min VisibilityMiles, Max Wind SpeedMPH, Mean Wind SpeedMPH, Max Gust SpeedMPH,PrecipitationIn, CloudCover, Events, WindDirDegrees
2012-9-1,59,52,46,43,39,37,81,61,41,30.37,30.19,29.92,19,7,0,28,20,38,0.00,4,,272
2012-9-2,58,49,40,43,39,36,81,66,38,30.36,30.24,29.61,12,8,6,10,5,,0.00,3,,283
2012-9-3,55,52,48,48,43,39,94,74,54,30.39,30.33,30.24,12,7,2,15,10,,0.00,6,Rain,274
2012-9-4,61,52,43,46,42,37,87,69,40,30.38,30.28,30.18,12,8,6,23,8,,0.00,3,,79
2012-9-5,63,51,39,48,43,37,88,68,34,30.36,30.21,30.12,19,9,6,9,6,,0.08,3,,323
2012-9-6,66,56,45,55,51,45,94,82,56,30.43,30.35,30.24,19,8,6,20,7,,0.00,1,Rain,81
2012-9-7,78,63,48,52,47,41,94,62,16,30.24,30.10,30.01,19,12,6,16,5,,0.00,1,,313
2012-9-8,63,54,45,52,48,39,88,76,59,30.14,30.05,29.92,19,9,6,9,5,,0.00,3,,83
2012-9-9,72,62,51,52,48,41,94,71,22,30.01,29.87,29.79,19,7,2,24,10,,0.00,5,Rain,271
2012-9-10,66,58,50,50,45,39,88,63,47,30.24,30.11,29.98,19,8,6,17,11,,0.00,4,,263
2012-9-11,62,54,46,52,49,45,93,77,54,30.24,30.17,30.09,12,8,6,12,5,,0.00,4,,86
2012-9-12,78,64,49,61,53,48,94,76,46,30.09,29.93,29.80,12,8,5,16,5,,0.00,4,,276
2012-9-13,65,58,51,55,51,48,94,76,47,30.36,30.17,30.01,19,7,3,16,10,,0.01,6,,276
2012-9-14,63,56,50,54,50,46,88,79,55,30.43,30.39,30.36,12,7,6,23,8,,0.02,4,Rain,65
2012-9-15,68,57,46,54,48,41,87,67,43,30.40,30.29,30.15,19,15,12,17,8,,0.00,,,83
2012-9-16,91,70,49,54,47,39,82,47,14,30.13,30.01,29.86,19,13,12,12,4,,0.00,,,52
2012-9-17,68,62,57,55,49,39,88,58,17,29.99,29.93,29.77,19,9,6,20,8,32,0.00,6,,233
2012-9-18,68,60,50,55,51,45,94,77,46,30.04,29.96,29.91,19,7,4,17,7,,0.00,5,,256
2012-9-19,68,56,45,47,42,37,82,60,26,30.12,30.06,30.04,19,10,6,17,9,,0.00,1,,272
2012-9-20,78,60,43,54,48,39,88,72,36,30.01,29.84,29.68,19,10,6,18,4,,0.00,7,,128
2012-9-21,65,58,50,52,49,48,94,81,57,30.04,29.89,29.80,12,7,6,17,6,,0.02,5,Rain,309
2012-9-22,63,55,46,46,43,38,87,65,38,30.19,30.10,30.04,19,8,6,17,10,,0.00,4,,275
2012-9-23,73,58,42,46,43,38,87,60,24,30.12,29.99,29.86,19,10,6,24,7,,0.00,3,,287
2012-9-24,65,59,51,52,50,46,94,71,45,30.21,30.14,30.04,19,7,4,20,12,,0.00,5,Rain,260
2012-9-25,69,57,45,57,51,45,94,80,53,30.17,30.02,29.89,12,8,4,10,5,,0.00,4,,74
2012-9-26,61,58,54,55,53,52,94,81,64,29.87,29.83,29.80,12,7,6,12,5,,0.00,6,,217
2012-9-27,61,56,50,52,49,43,94,79,63,29.98,29.91,29.83,19,8,6,13,7,,0.00,6,Rain,275
2012-9-28,62,54,47,50,45,42,87,74,44,30.19,30.06,29.95,19,8,5,21,11,,0.00,5,Rain,281
2012-9-29,67,54,42,48,42,37,82,60,30,30.20,30.14,30.06,12,8,6,18,10,,0.00,2,,279
2012-9-30,65,56,47,52,47,41,88,69,41,30.20,30.14,30.06,12,8,6,10,6,,0.00,3,,93